createdAt,value
2019-04-21T00:03:30.232Z,15.80
2019-04-21T00:09:02.442Z,15.70
2019-04-21T00:13:42.644Z,15.60
2019-04-21T00:18:47.891Z,15.50
2019-04-21T00:24:01.264Z,15.30
2019-04-21T00:29:21.049Z,15.10
2019-04-21T00:34:50.370Z,15.00
2019-04-21T00:40:13.170Z,15.00
2019-04-21T00:45:09.780Z,14.80
2019-04-21T00:50:17.988Z,14.70
2019-04-21T01:00:32.341Z,14.50
2019-04-21T01:05:42.617Z,14.40
2019-04-21T01:10:36.052Z,14.30
2019-04-21T01:15:51.520Z,14.20
2019-04-21T01:20:32.202Z,14.00
2019-04-21T01:25:41.181Z,14.00
2019-04-21T01:31:03.740Z,13.90
2019-04-21T01:36:03.866Z,13.90
2019-04-21T01:41:12.988Z,13.80
2019-04-21T01:46:18.021Z,13.70
2019-04-21T01:51:18.075Z,13.60
2019-04-21T01:56:38.864Z,13.60
2019-04-21T02:01:49.281Z,13.40
2019-04-21T02:06:57.349Z,13.20
2019-04-21T02:12:04.521Z,13.10
2019-04-21T02:17:07.651Z,13.10
2019-04-21T02:22:00.884Z,13.10
2019-04-21T02:27:21.844Z,13.30
2019-04-21T02:32:35.688Z,13.10
2019-04-21T02:42:46.415Z,13.00
2019-04-21T02:48:03.962Z,12.90
2019-04-21T02:52:55.454Z,12.70
2019-04-21T02:58:06.170Z,12.70
2019-04-21T03:03:13.417Z,12.60
2019-04-21T03:23:36.351Z,12.40
2019-04-21T03:28:39.820Z,12.30
2019-04-21T03:34:21.317Z,12.30
2019-04-21T03:38:47.318Z,12.10
2019-04-21T03:43:59.221Z,12.00
2019-04-21T03:49:04.850Z,12.10
2019-04-21T03:54:00.010Z,12.00
2019-04-21T03:59:07.392Z,12.00
2019-04-21T04:04:30.279Z,12.00
2019-04-21T04:09:37.477Z,11.90
2019-04-21T04:14:40.453Z,11.70
2019-04-21T04:19:39.328Z,11.70
2019-04-21T04:29:56.418Z,11.70
2019-04-21T04:34:59.530Z,11.60
2019-04-21T04:40:10.766Z,11.40
2019-04-21T04:50:08.212Z,11.50
2019-04-21T04:55:26.120Z,11.50
2019-04-21T05:06:34.833Z,11.30
2019-04-21T05:11:43.260Z,11.40
2019-04-21T05:21:44.729Z,11.40
2019-04-21T05:26:33.395Z,11.30
2019-04-21T05:32:04.608Z,11.30
2019-04-21T05:37:07.185Z,11.30
2019-04-21T05:41:58.873Z,11.20
2019-04-21T05:52:21.058Z,11.30
2019-04-21T05:57:32.068Z,11.60
2019-04-21T06:02:39.984Z,11.70
2019-04-21T06:07:41.064Z,11.70
2019-04-21T06:12:50.417Z,11.90
2019-04-21T06:17:59.315Z,11.90
2019-04-21T06:23:00.711Z,12.00
2019-04-21T06:28:03.568Z,12.30
2019-04-21T06:32:59.405Z,12.30
2019-04-21T06:38:21.896Z,12.40
2019-04-21T06:48:32.944Z,13.00
2019-04-21T06:53:44.837Z,13.20
2019-04-21T06:58:48.081Z,13.50
2019-04-21T07:04:30.810Z,13.70
2019-04-21T07:10:04.871Z,14.10
2019-04-21T07:48:38.110Z,17.00
2019-04-21T07:59:31.575Z,17.50
2019-04-21T08:04:55.848Z,18.20
2019-04-21T08:15:58.231Z,18.70
2019-04-21T08:26:19.131Z,19.50
2019-04-21T08:31:32.465Z,20.10
2019-04-21T08:36:34.028Z,19.90
2019-04-21T08:47:15.851Z,21.00
2019-04-21T08:57:46.503Z,21.20
2019-04-21T09:07:49.336Z,21.90
2019-04-21T09:12:49.046Z,22.30
2019-04-21T09:17:44.728Z,22.70
2019-04-21T09:23:05.262Z,23.60
2019-04-21T09:28:36.986Z,23.90
2019-04-21T09:33:48.422Z,24.30
2019-04-21T09:39:00.072Z,24.60
2019-04-21T09:44:02.808Z,24.50
2019-04-21T09:49:12.163Z,24.60
2019-04-21T09:54:20.488Z,24.70
2019-04-21T09:59:26.133Z,24.40
2019-04-21T10:04:23.232Z,24.30
2019-04-21T10:09:39.635Z,24.00
2019-04-21T10:15:24.903Z,24.30
2019-04-21T10:20:28.594Z,24.20
2019-04-21T10:25:58.697Z,24.50
2019-04-21T10:31:06.746Z,24.20
2019-04-21T10:36:11.421Z,24.70
2019-04-21T10:41:15.138Z,24.70
2019-04-21T10:46:22.387Z,24.50
2019-04-21T10:51:26.337Z,24.30
2019-04-21T10:56:35.069Z,24.20
2019-04-21T11:01:35.278Z,23.90
2019-04-21T11:06:38.887Z,24.40
2019-04-21T11:11:44.994Z,24.30
2019-04-21T11:16:49.773Z,24.50
2019-04-21T11:21:54.681Z,24.30
2019-04-21T11:26:58.266Z,24.00
2019-04-21T11:32:03.048Z,24.10
2019-04-21T11:37:10.228Z,24.20
2019-04-21T11:42:17.470Z,24.30
2019-04-21T11:47:30.261Z,24.40
2019-04-21T11:52:34.720Z,24.50
2019-04-21T11:57:42.808Z,24.70
2019-04-21T12:02:45.709Z,24.70
2019-04-21T12:07:49.417Z,24.70
2019-04-21T12:12:53.209Z,25.10
2019-04-21T12:17:57.544Z,25.20
2019-04-21T12:23:02.408Z,25.20
2019-04-21T12:28:10.041Z,25.20
2019-04-21T12:33:32.094Z,25.20
2019-04-21T12:38:44.255Z,25.30
2019-04-21T12:43:42.991Z,25.40
2019-04-21T12:48:46.877Z,25.50
2019-04-21T12:53:51.783Z,25.70
2019-04-21T12:58:55.456Z,25.60
2019-04-21T13:03:59.657Z,26.00
2019-04-21T13:09:08.334Z,25.90
2019-04-21T13:14:09.007Z,26.10
2019-04-21T13:19:13.351Z,26.00
2019-04-21T13:24:17.749Z,26.00
2019-04-21T13:29:21.373Z,26.00
2019-04-21T13:34:42.274Z,26.10
2019-04-21T13:40:13.176Z,26.20
2019-04-21T13:45:00.949Z,26.50
2019-04-21T13:50:06.337Z,26.20
2019-04-21T13:55:09.913Z,26.40
2019-04-21T14:00:15.149Z,26.60
2019-04-21T14:05:20.301Z,26.60
2019-04-21T14:10:25.850Z,26.40
2019-04-21T14:15:30.382Z,26.50
2019-04-21T14:20:35.172Z,26.60
2019-04-21T14:25:39.581Z,26.40
2019-04-21T14:30:44.190Z,26.40
2019-04-21T14:35:47.934Z,26.60
2019-04-21T14:40:52.432Z,26.70
2019-04-21T14:45:58.618Z,26.90
2019-04-21T14:51:07.052Z,26.80
2019-04-21T14:56:11.135Z,26.60
2019-04-21T15:01:15.800Z,26.50
2019-04-21T15:06:19.294Z,26.60
2019-04-21T15:11:24.138Z,26.60
2019-04-21T15:16:29.174Z,26.60
2019-04-21T15:21:33.429Z,26.50
2019-04-21T15:26:38.022Z,26.30
2019-04-21T15:31:44.607Z,26.50
2019-04-21T15:36:50.326Z,26.30
2019-04-21T15:41:54.647Z,26.40
2019-04-21T15:46:59.720Z,26.50
2019-04-21T15:52:04.189Z,26.10
2019-04-21T15:57:08.982Z,26.00
2019-04-21T16:02:26.555Z,26.00
2019-04-21T16:07:30.201Z,26.00
2019-04-21T16:12:33.965Z,25.80
2019-04-21T16:17:39.271Z,25.80
2019-04-21T16:22:44.411Z,25.70
2019-04-21T16:27:48.076Z,25.60
2019-04-21T16:32:52.232Z,25.50
2019-04-21T16:37:58.741Z,25.40
2019-04-21T16:43:01.209Z,25.40
2019-04-21T16:48:05.340Z,25.30
2019-04-21T16:53:16.567Z,25.20
2019-04-21T16:58:36.814Z,25.10
2019-04-21T17:03:40.240Z,25.00
2019-04-21T17:08:44.921Z,24.90
2019-04-21T17:13:49.989Z,24.70
2019-04-21T17:19:03.079Z,24.60
2019-04-21T17:23:59.086Z,24.50
2019-04-21T17:29:02.809Z,24.40
2019-04-21T17:34:12.332Z,24.30
2019-04-21T17:39:13.148Z,24.20
2019-04-21T17:44:17.179Z,24.10
2019-04-21T17:49:21.183Z,24.10
2019-04-21T17:54:35.653Z,24.10
2019-04-21T18:05:03.734Z,23.80
2019-04-21T18:10:15.642Z,23.70
2019-04-21T18:15:02.499Z,23.60
2019-04-21T18:19:57.345Z,23.30
2019-04-21T18:25:07.031Z,23.20
2019-04-21T18:30:31.959Z,23.00
2019-04-21T18:35:46.400Z,22.80
2019-04-21T18:40:52.364Z,22.50
2019-04-21T18:46:24.203Z,22.30
2019-04-21T18:51:15.817Z,22.00
2019-04-21T18:56:18.650Z,21.80
2019-04-21T19:01:27.536Z,21.60
2019-04-21T19:06:45.861Z,21.40
2019-04-21T19:11:53.440Z,21.20
2019-04-21T19:17:04.457Z,21.30
2019-04-21T19:22:04.929Z,21.30
2019-04-21T19:27:11.716Z,20.80
2019-04-21T19:32:13.843Z,20.40
2019-04-21T19:37:06.087Z,20.30
2019-04-21T19:42:18.519Z,20.00
2019-04-21T19:47:36.739Z,19.90
2019-04-21T19:52:30.973Z,19.70
2019-04-21T19:57:22.944Z,19.70
2019-04-21T20:02:26.806Z,19.50
2019-04-21T20:07:43.880Z,19.30
2019-04-21T20:12:57.025Z,19.00
2019-04-21T20:17:54.071Z,18.80
2019-04-21T20:22:50.328Z,18.80
2019-04-21T20:28:00.712Z,18.70
2019-04-21T20:33:35.465Z,18.60
2019-04-21T20:38:17.628Z,18.30
2019-04-21T20:43:27.208Z,18.20
2019-04-21T20:48:23.765Z,18.00
2019-04-21T20:53:35.868Z,18.00
2019-04-21T20:58:40.852Z,17.90
2019-04-21T21:03:58.055Z,17.70
2019-04-21T21:08:52.718Z,17.50
2019-04-21T21:14:01.927Z,17.60
2019-04-21T21:19:21.682Z,17.50
2019-04-21T21:24:09.698Z,17.40
2019-04-21T21:29:18.431Z,17.20
2019-04-21T21:34:25.723Z,17.00
2019-04-21T21:39:25.010Z,17.00
2019-04-21T21:44:19.715Z,17.00
2019-04-21T21:49:35.486Z,16.90
2019-04-21T21:54:25.580Z,16.80
2019-04-21T21:59:31.812Z,16.60
2019-04-21T22:04:37.479Z,16.60
2019-04-21T22:09:40.371Z,16.70
2019-04-21T22:14:48.407Z,16.50
2019-04-21T22:20:12.245Z,16.30
2019-04-21T22:25:04.801Z,16.20
2019-04-21T22:30:03.352Z,16.00
2019-04-21T22:35:16.391Z,15.90
2019-04-21T22:40:29.143Z,15.90
2019-04-21T22:45:23.257Z,15.80
2019-04-21T22:50:30.858Z,15.70
